sensor_id;sensor_type;location;lat;lon;timestamp;P1;durP1;ratioP1;P2;durP2;ratioP2
51060;SDS011;37708;39.368;22.940;2022-07-05T00:00:15;5.95;;;1.50;;
51060;SDS011;37708;39.368;22.940;2022-07-05T00:03:01;5.72;;;1.25;;
51060;SDS011;37708;39.368;22.940;2022-07-05T00:05:45;3.65;;;1.30;;
51060;SDS011;37708;39.368;22.940;2022-07-05T00:08:30;2.42;;;1.23;;
51060;SDS011;37708;39.368;22.940;2022-07-05T00:11:14;2.75;;;1.20;;
51060;SDS011;37708;39.368;22.940;2022-07-05T00:13:58;1.63;;;1.05;;
51060;SDS011;37708;39.368;22.940;2022-07-05T00:16:43;3.03;;;1.10;;
51060;SDS011;37708;39.368;22.940;2022-07-05T00:19:27;1.75;;;1.10;;
51060;SDS011;37708;39.368;22.940;2022-07-05T00:24:56;3.45;;;1.27;;
51060;SDS011;37708;39.368;22.940;2022-07-05T00:27:41;3.00;;;1.08;;
51060;SDS011;37708;39.368;22.940;2022-07-05T00:30:25;6.03;;;1.20;;
51060;SDS011;37708;39.368;22.940;2022-07-05T00:35:53;2.55;;;1.05;;
51060;SDS011;37708;39.368;22.940;2022-07-05T00:38:38;2.38;;;1.10;;
51060;SDS011;37708;39.368;22.940;2022-07-05T00:41:22;1.95;;;1.00;;
51060;SDS011;37708;39.368;22.940;2022-07-05T00:44:08;3.25;;;1.40;;
51060;SDS011;37708;39.368;22.940;2022-07-05T00:46:53;3.13;;;1.40;;
51060;SDS011;37708;39.368;22.940;2022-07-05T00:49:38;5.55;;;1.40;;
51060;SDS011;37708;39.368;22.940;2022-07-05T00:52:24;4.03;;;1.23;;
51060;SDS011;37708;39.368;22.940;2022-07-05T00:55:09;3.70;;;1.50;;
51060;SDS011;37708;39.368;22.940;2022-07-05T00:57:54;6.25;;;1.50;;
51060;SDS011;37708;39.368;22.940;2022-07-05T01:00:40;5.05;;;1.38;;
51060;SDS011;37708;39.368;22.940;2022-07-05T01:03:27;3.58;;;1.02;;
51060;SDS011;37708;39.368;22.940;2022-07-05T01:08:56;3.95;;;1.42;;
51060;SDS011;37708;39.368;22.940;2022-07-05T01:11:44;6.20;;;1.15;;
51060;SDS011;37708;39.368;22.940;2022-07-05T01:14:31;6.00;;;1.40;;
51060;SDS011;37708;39.368;22.940;2022-07-05T01:17:17;3.03;;;1.10;;
51060;SDS011;37708;39.368;22.940;2022-07-05T01:20:01;2.55;;;1.10;;
51060;SDS011;37708;39.368;22.940;2022-07-05T01:22:51;4.40;;;1.40;;
51060;SDS011;37708;39.368;22.940;2022-07-05T01:25:40;5.10;;;1.27;;
51060;SDS011;37708;39.368;22.940;2022-07-05T01:28:24;3.38;;;1.00;;
51060;SDS011;37708;39.368;22.940;2022-07-05T01:31:09;3.75;;;1.33;;
51060;SDS011;37708;39.368;22.940;2022-07-05T01:33:54;7.35;;;1.30;;
51060;SDS011;37708;39.368;22.940;2022-07-05T01:39:24;4.47;;;1.23;;
51060;SDS011;37708;39.368;22.940;2022-07-05T01:42:09;3.80;;;1.25;;
51060;SDS011;37708;39.368;22.940;2022-07-05T01:44:54;3.13;;;1.10;;
51060;SDS011;37708;39.368;22.940;2022-07-05T01:47:39;3.70;;;1.20;;
51060;SDS011;37708;39.368;22.940;2022-07-05T01:50:31;3.38;;;1.23;;
51060;SDS011;37708;39.368;22.940;2022-07-05T01:53:20;2.17;;;1.10;;
51060;SDS011;37708;39.368;22.940;2022-07-05T01:56:06;3.75;;;1.17;;
51060;SDS011;37708;39.368;22.940;2022-07-05T01:58:51;1.40;;;1.30;;
51060;SDS011;37708;39.368;22.940;2022-07-05T02:01:38;5.40;;;1.65;;
51060;SDS011;37708;39.368;22.940;2022-07-05T02:04:23;7.70;;;2.13;;
51060;SDS011;37708;39.368;22.940;2022-07-05T02:07:09;8.68;;;2.95;;
51060;SDS011;37708;39.368;22.940;2022-07-05T02:09:53;8.02;;;2.85;;
51060;SDS011;37708;39.368;22.940;2022-07-05T02:12:38;8.10;;;3.20;;
51060;SDS011;37708;39.368;22.940;2022-07-05T02:15:22;11.30;;;3.80;;
51060;SDS011;37708;39.368;22.940;2022-07-05T02:18:07;12.18;;;4.03;;
51060;SDS011;37708;39.368;22.940;2022-07-05T02:20:52;16.20;;;4.97;;
51060;SDS011;37708;39.368;22.940;2022-07-05T02:23:37;9.40;;;4.00;;
51060;SDS011;37708;39.368;22.940;2022-07-05T02:26:21;9.55;;;4.10;;
51060;SDS011;37708;39.368;22.940;2022-07-05T02:29:06;11.10;;;4.28;;
51060;SDS011;37708;39.368;22.940;2022-07-05T02:34:34;11.30;;;3.90;;
51060;SDS011;37708;39.368;22.940;2022-07-05T02:40:03;12.38;;;4.57;;
51060;SDS011;37708;39.368;22.940;2022-07-05T02:42:48;13.18;;;4.00;;
51060;SDS011;37708;39.368;22.940;2022-07-05T02:45:33;8.98;;;4.30;;
51060;SDS011;37708;39.368;22.940;2022-07-05T02:51:01;12.95;;;2.67;;
51060;SDS011;37708;39.368;22.940;2022-07-05T02:53:46;10.30;;;3.78;;
51060;SDS011;37708;39.368;22.940;2022-07-05T02:56:31;9.13;;;2.10;;
51060;SDS011;37708;39.368;22.940;2022-07-05T03:01:59;7.90;;;2.00;;
51060;SDS011;37708;39.368;22.940;2022-07-05T03:04:43;6.82;;;1.75;;
51060;SDS011;37708;39.368;22.940;2022-07-05T03:07:28;9.30;;;1.50;;
51060;SDS011;37708;39.368;22.940;2022-07-05T03:10:12;11.50;;;1.60;;
51060;SDS011;37708;39.368;22.940;2022-07-05T03:12:57;5.10;;;1.35;;
51060;SDS011;37708;39.368;22.940;2022-07-05T03:15:43;6.10;;;1.65;;
51060;SDS011;37708;39.368;22.940;2022-07-05T03:21:11;7.97;;;1.90;;
51060;SDS011;37708;39.368;22.940;2022-07-05T03:26:40;6.90;;;1.70;;
51060;SDS011;37708;39.368;22.940;2022-07-05T03:29:24;6.00;;;1.20;;
51060;SDS011;37708;39.368;22.940;2022-07-05T03:32:09;6.18;;;1.50;;
51060;SDS011;37708;39.368;22.940;2022-07-05T03:34:53;10.55;;;1.80;;
51060;SDS011;37708;39.368;22.940;2022-07-05T03:37:38;8.80;;;1.40;;
51060;SDS011;37708;39.368;22.940;2022-07-05T03:43:07;10.20;;;1.98;;
51060;SDS011;37708;39.368;22.940;2022-07-05T03:48:35;12.82;;;1.83;;
51060;SDS011;37708;39.368;22.940;2022-07-05T03:54:04;11.80;;;1.92;;
51060;SDS011;37708;39.368;22.940;2022-07-05T03:56:48;14.98;;;2.47;;
51060;SDS011;37708;39.368;22.940;2022-07-05T03:59:33;14.45;;;1.90;;
51060;SDS011;37708;39.368;22.940;2022-07-05T04:02:18;13.80;;;2.45;;
51060;SDS011;37708;39.368;22.940;2022-07-05T04:05:02;10.38;;;2.60;;
51060;SDS011;37708;39.368;22.940;2022-07-05T04:07:51;12.45;;;2.40;;
51060;SDS011;37708;39.368;22.940;2022-07-05T04:10:36;13.63;;;1.90;;
51060;SDS011;37708;39.368;22.940;2022-07-05T04:13:20;35.60;;;4.18;;
51060;SDS011;37708;39.368;22.940;2022-07-05T04:16:05;34.15;;;5.10;;
51060;SDS011;37708;39.368;22.940;2022-07-05T04:18:50;18.27;;;3.10;;
51060;SDS011;37708;39.368;22.940;2022-07-05T04:24:19;30.60;;;5.47;;
51060;SDS011;37708;39.368;22.940;2022-07-05T04:27:04;30.83;;;5.53;;
51060;SDS011;37708;39.368;22.940;2022-07-05T04:29:48;24.55;;;5.53;;
51060;SDS011;37708;39.368;22.940;2022-07-05T04:32:33;28.35;;;3.47;;
51060;SDS011;37708;39.368;22.940;2022-07-05T04:35:18;28.58;;;3.97;;
51060;SDS011;37708;39.368;22.940;2022-07-05T04:38:02;27.58;;;4.20;;
51060;SDS011;37708;39.368;22.940;2022-07-05T04:40:47;17.45;;;3.38;;
51060;SDS011;37708;39.368;22.940;2022-07-05T04:43:31;18.00;;;2.55;;
51060;SDS011;37708;39.368;22.940;2022-07-05T04:46:18;13.88;;;3.25;;
51060;SDS011;37708;39.368;22.940;2022-07-05T04:49:02;17.10;;;3.35;;
51060;SDS011;37708;39.368;22.940;2022-07-05T04:54:30;19.88;;;3.67;;
51060;SDS011;37708;39.368;22.940;2022-07-05T04:57:15;17.33;;;2.88;;
51060;SDS011;37708;39.368;22.940;2022-07-05T04:59:59;15.77;;;3.45;;
51060;SDS011;37708;39.368;22.940;2022-07-05T05:02:44;18.35;;;3.50;;
51060;SDS011;37708;39.368;22.940;2022-07-05T05:05:28;18.23;;;4.32;;
51060;SDS011;37708;39.368;22.940;2022-07-05T05:08:13;24.35;;;4.05;;
51060;SDS011;37708;39.368;22.940;2022-07-05T05:10:57;17.58;;;4.82;;
51060;SDS011;37708;39.368;22.940;2022-07-05T05:13:42;21.90;;;5.75;;
51060;SDS011;37708;39.368;22.940;2022-07-05T05:16:29;29.95;;;5.03;;
51060;SDS011;37708;39.368;22.940;2022-07-05T05:19:13;29.52;;;6.45;;
51060;SDS011;37708;39.368;22.940;2022-07-05T05:21:58;31.55;;;5.68;;
51060;SDS011;37708;39.368;22.940;2022-07-05T05:24:42;14.98;;;4.90;;
51060;SDS011;37708;39.368;22.940;2022-07-05T05:27:27;9.73;;;4.75;;
51060;SDS011;37708;39.368;22.940;2022-07-05T05:30:11;9.52;;;4.30;;
51060;SDS011;37708;39.368;22.940;2022-07-05T05:32:57;23.13;;;4.85;;
51060;SDS011;37708;39.368;22.940;2022-07-05T05:35:41;25.00;;;4.47;;
51060;SDS011;37708;39.368;22.940;2022-07-05T05:38:25;18.48;;;4.75;;
51060;SDS011;37708;39.368;22.940;2022-07-05T05:41:10;17.85;;;4.82;;
51060;SDS011;37708;39.368;22.940;2022-07-05T05:43:54;22.27;;;6.13;;
51060;SDS011;37708;39.368;22.940;2022-07-05T05:46:39;27.27;;;5.80;;
51060;SDS011;37708;39.368;22.940;2022-07-05T05:49:23;19.38;;;4.53;;
51060;SDS011;37708;39.368;22.940;2022-07-05T05:52:08;15.88;;;7.60;;
51060;SDS011;37708;39.368;22.940;2022-07-05T05:54:52;25.17;;;4.78;;
51060;SDS011;37708;39.368;22.940;2022-07-05T05:57:37;16.88;;;3.95;;
51060;SDS011;37708;39.368;22.940;2022-07-05T06:00:22;21.60;;;3.97;;
51060;SDS011;37708;39.368;22.940;2022-07-05T06:03:06;14.75;;;2.85;;
51060;SDS011;37708;39.368;22.940;2022-07-05T06:05:51;11.88;;;4.05;;
51060;SDS011;37708;39.368;22.940;2022-07-05T06:08:35;8.48;;;2.22;;
51060;SDS011;37708;39.368;22.940;2022-07-05T06:11:20;13.88;;;2.72;;
51060;SDS011;37708;39.368;22.940;2022-07-05T06:14:05;8.95;;;2.08;;
51060;SDS011;37708;39.368;22.940;2022-07-05T06:16:49;9.48;;;2.10;;
51060;SDS011;37708;39.368;22.940;2022-07-05T06:19:34;9.05;;;2.45;;
51060;SDS011;37708;39.368;22.940;2022-07-05T06:22:18;15.95;;;2.58;;
51060;SDS011;37708;39.368;22.940;2022-07-05T06:25:03;5.00;;;2.20;;
51060;SDS011;37708;39.368;22.940;2022-07-05T06:27:49;8.75;;;2.60;;
51060;SDS011;37708;39.368;22.940;2022-07-05T06:30:38;9.55;;;3.40;;
51060;SDS011;37708;39.368;22.940;2022-07-05T06:33:23;7.82;;;2.28;;
51060;SDS011;37708;39.368;22.940;2022-07-05T06:36:08;10.13;;;2.63;;
51060;SDS011;37708;39.368;22.940;2022-07-05T06:38:52;9.00;;;2.95;;
51060;SDS011;37708;39.368;22.940;2022-07-05T06:41:36;9.40;;;2.25;;
51060;SDS011;37708;39.368;22.940;2022-07-05T06:44:21;12.57;;;2.75;;
51060;SDS011;37708;39.368;22.940;2022-07-05T06:47:06;4.35;;;2.53;;
51060;SDS011;37708;39.368;22.940;2022-07-05T06:49:50;3.55;;;2.00;;
51060;SDS011;37708;39.368;22.940;2022-07-05T06:52:35;12.55;;;5.18;;
51060;SDS011;37708;39.368;22.940;2022-07-05T06:55:19;15.57;;;2.38;;
51060;SDS011;37708;39.368;22.940;2022-07-05T06:58:05;5.45;;;2.20;;
51060;SDS011;37708;39.368;22.940;2022-07-05T07:00:50;5.13;;;1.92;;
51060;SDS011;37708;39.368;22.940;2022-07-05T07:03:36;12.05;;;2.65;;
51060;SDS011;37708;39.368;22.940;2022-07-05T07:06:20;15.30;;;2.75;;
51060;SDS011;37708;39.368;22.940;2022-07-05T07:09:05;10.73;;;2.30;;
51060;SDS011;37708;39.368;22.940;2022-07-05T07:12:06;9.65;;;2.70;;
51060;SDS011;37708;39.368;22.940;2022-07-05T07:14:50;15.27;;;2.90;;
51060;SDS011;37708;39.368;22.940;2022-07-05T07:17:34;9.90;;;2.38;;
51060;SDS011;37708;39.368;22.940;2022-07-05T07:20:19;11.15;;;2.10;;
51060;SDS011;37708;39.368;22.940;2022-07-05T07:23:03;13.43;;;2.17;;
51060;SDS011;37708;39.368;22.940;2022-07-05T07:25:48;9.15;;;2.40;;
51060;SDS011;37708;39.368;22.940;2022-07-05T07:28:32;10.45;;;2.55;;
51060;SDS011;37708;39.368;22.940;2022-07-05T07:31:17;14.93;;;2.72;;
51060;SDS011;37708;39.368;22.940;2022-07-05T07:34:01;14.90;;;2.50;;
51060;SDS011;37708;39.368;22.940;2022-07-05T07:36:46;15.07;;;2.63;;
51060;SDS011;37708;39.368;22.940;2022-07-05T07:39:31;8.90;;;2.38;;
51060;SDS011;37708;39.368;22.940;2022-07-05T07:42:16;11.60;;;2.40;;
51060;SDS011;37708;39.368;22.940;2022-07-05T07:45:00;9.43;;;3.03;;
51060;SDS011;37708;39.368;22.940;2022-07-05T07:47:47;13.05;;;2.60;;
51060;SDS011;37708;39.368;22.940;2022-07-05T07:50:32;13.52;;;2.80;;
51060;SDS011;37708;39.368;22.940;2022-07-05T07:53:16;7.82;;;1.92;;
51060;SDS011;37708;39.368;22.940;2022-07-05T07:56:01;8.50;;;2.25;;
51060;SDS011;37708;39.368;22.940;2022-07-05T07:58:46;10.23;;;3.17;;
51060;SDS011;37708;39.368;22.940;2022-07-05T08:01:31;23.83;;;20.52;;
51060;SDS011;37708;39.368;22.940;2022-07-05T08:04:16;8.98;;;2.20;;
51060;SDS011;37708;39.368;22.940;2022-07-05T08:07:00;6.25;;;1.92;;
51060;SDS011;37708;39.368;22.940;2022-07-05T08:09:45;10.10;;;2.40;;
51060;SDS011;37708;39.368;22.940;2022-07-05T08:12:29;9.27;;;2.67;;
51060;SDS011;37708;39.368;22.940;2022-07-05T08:15:14;9.18;;;2.30;;
51060;SDS011;37708;39.368;22.940;2022-07-05T08:17:59;9.57;;;2.17;;
51060;SDS011;37708;39.368;22.940;2022-07-05T08:21:02;10.45;;;2.00;;
51060;SDS011;37708;39.368;22.940;2022-07-05T08:24:06;9.10;;;2.70;;
51060;SDS011;37708;39.368;22.940;2022-07-05T08:26:55;6.72;;;2.40;;
51060;SDS011;37708;39.368;22.940;2022-07-05T08:29:40;4.28;;;2.53;;
51060;SDS011;37708;39.368;22.940;2022-07-05T08:32:24;9.07;;;2.80;;
51060;SDS011;37708;39.368;22.940;2022-07-05T08:35:09;6.45;;;2.60;;
51060;SDS011;37708;39.368;22.940;2022-07-05T08:37:54;8.38;;;2.40;;
51060;SDS011;37708;39.368;22.940;2022-07-05T08:40:39;9.05;;;2.30;;
51060;SDS011;37708;39.368;22.940;2022-07-05T08:43:30;6.53;;;2.08;;
51060;SDS011;37708;39.368;22.940;2022-07-05T08:46:15;7.07;;;2.13;;
51060;SDS011;37708;39.368;22.940;2022-07-05T08:49:02;9.70;;;4.13;;
51060;SDS011;37708;39.368;22.940;2022-07-05T08:51:48;6.57;;;2.17;;
51060;SDS011;37708;39.368;22.940;2022-07-05T08:54:33;10.60;;;2.25;;
51060;SDS011;37708;39.368;22.940;2022-07-05T08:57:17;16.15;;;2.45;;
51060;SDS011;37708;39.368;22.940;2022-07-05T09:00:02;8.88;;;2.75;;
51060;SDS011;37708;39.368;22.940;2022-07-05T09:02:47;10.98;;;2.83;;
51060;SDS011;37708;39.368;22.940;2022-07-05T09:05:39;19.83;;;3.53;;
51060;SDS011;37708;39.368;22.940;2022-07-05T09:08:28;14.10;;;3.58;;
51060;SDS011;37708;39.368;22.940;2022-07-05T09:11:16;19.48;;;3.85;;
51060;SDS011;37708;39.368;22.940;2022-07-05T09:14:15;15.63;;;3.13;;
51060;SDS011;37708;39.368;22.940;2022-07-05T09:17:03;14.18;;;3.10;;
51060;SDS011;37708;39.368;22.940;2022-07-05T09:20:04;13.95;;;2.88;;
51060;SDS011;37708;39.368;22.940;2022-07-05T09:22:51;18.13;;;3.05;;
51060;SDS011;37708;39.368;22.940;2022-07-05T09:25:37;3.97;;;2.80;;
51060;SDS011;37708;39.368;22.940;2022-07-05T09:28:21;4.53;;;2.42;;
51060;SDS011;37708;39.368;22.940;2022-07-05T09:31:06;11.18;;;2.92;;
51060;SDS011;37708;39.368;22.940;2022-07-05T09:37:07;10.02;;;3.15;;
51060;SDS011;37708;39.368;22.940;2022-07-05T09:39:51;10.55;;;3.60;;
51060;SDS011;37708;39.368;22.940;2022-07-05T09:42:36;5.93;;;2.90;;
51060;SDS011;37708;39.368;22.940;2022-07-05T09:45:21;10.20;;;3.22;;
51060;SDS011;37708;39.368;22.940;2022-07-05T09:48:07;11.93;;;3.38;;
51060;SDS011;37708;39.368;22.940;2022-07-05T09:50:51;5.90;;;2.70;;
51060;SDS011;37708;39.368;22.940;2022-07-05T09:56:52;8.48;;;3.10;;
51060;SDS011;37708;39.368;22.940;2022-07-05T10:05:24;9.88;;;2.65;;
51060;SDS011;37708;39.368;22.940;2022-07-05T10:08:10;9.77;;;3.00;;
51060;SDS011;37708;39.368;22.940;2022-07-05T10:10:57;12.02;;;2.65;;
51060;SDS011;37708;39.368;22.940;2022-07-05T10:13:41;10.18;;;3.10;;
51060;SDS011;37708;39.368;22.940;2022-07-05T10:16:26;8.25;;;3.30;;
51060;SDS011;37708;39.368;22.940;2022-07-05T10:19:15;14.95;;;3.00;;
51060;SDS011;37708;39.368;22.940;2022-07-05T10:22:02;13.00;;;3.05;;
51060;SDS011;37708;39.368;22.940;2022-07-05T10:24:48;18.17;;;3.35;;
51060;SDS011;37708;39.368;22.940;2022-07-05T10:27:33;14.15;;;2.55;;
51060;SDS011;37708;39.368;22.940;2022-07-05T10:30:19;8.52;;;2.63;;
51060;SDS011;37708;39.368;22.940;2022-07-05T10:33:06;5.65;;;2.70;;
51060;SDS011;37708;39.368;22.940;2022-07-05T10:35:52;8.30;;;2.78;;
51060;SDS011;37708;39.368;22.940;2022-07-05T10:38:46;6.55;;;2.35;;
51060;SDS011;37708;39.368;22.940;2022-07-05T10:44:31;9.05;;;2.50;;
51060;SDS011;37708;39.368;22.940;2022-07-05T10:47:17;13.77;;;3.33;;
51060;SDS011;37708;39.368;22.940;2022-07-05T10:50:04;13.38;;;4.47;;
51060;SDS011;37708;39.368;22.940;2022-07-05T10:53:02;16.80;;;2.88;;
51060;SDS011;37708;39.368;22.940;2022-07-05T10:55:47;15.70;;;2.90;;
51060;SDS011;37708;39.368;22.940;2022-07-05T10:58:37;11.10;;;2.95;;
51060;SDS011;37708;39.368;22.940;2022-07-05T11:04:23;11.90;;;3.58;;
51060;SDS011;37708;39.368;22.940;2022-07-05T11:07:10;8.98;;;3.00;;
51060;SDS011;37708;39.368;22.940;2022-07-05T11:09:59;11.80;;;2.88;;
51060;SDS011;37708;39.368;22.940;2022-07-05T11:12:43;13.55;;;3.40;;
51060;SDS011;37708;39.368;22.940;2022-07-05T11:15:28;17.67;;;3.58;;
51060;SDS011;37708;39.368;22.940;2022-07-05T11:18:16;10.63;;;3.30;;
51060;SDS011;37708;39.368;22.940;2022-07-05T11:21:17;13.50;;;3.58;;
51060;SDS011;37708;39.368;22.940;2022-07-05T11:27:13;12.85;;;3.60;;
51060;SDS011;37708;39.368;22.940;2022-07-05T11:29:58;19.42;;;10.88;;
51060;SDS011;37708;39.368;22.940;2022-07-05T11:32:43;13.13;;;3.55;;
51060;SDS011;37708;39.368;22.940;2022-07-05T11:35:31;11.93;;;3.25;;
51060;SDS011;37708;39.368;22.940;2022-07-05T11:38:17;21.20;;;3.90;;
51060;SDS011;37708;39.368;22.940;2022-07-05T11:41:12;8.13;;;3.22;;
51060;SDS011;37708;39.368;22.940;2022-07-05T11:43:57;8.18;;;3.47;;
51060;SDS011;37708;39.368;22.940;2022-07-05T11:46:42;9.65;;;3.53;;
51060;SDS011;37708;39.368;22.940;2022-07-05T11:49:27;11.70;;;3.70;;
51060;SDS011;37708;39.368;22.940;2022-07-05T11:52:11;8.07;;;3.15;;
51060;SDS011;37708;39.368;22.940;2022-07-05T11:55:00;9.10;;;3.08;;
51060;SDS011;37708;39.368;22.940;2022-07-05T11:57:50;21.60;;;3.70;;
51060;SDS011;37708;39.368;22.940;2022-07-05T12:00:36;12.18;;;3.53;;
51060;SDS011;37708;39.368;22.940;2022-07-05T12:03:21;17.45;;;3.95;;
51060;SDS011;37708;39.368;22.940;2022-07-05T12:06:14;12.80;;;2.95;;
51060;SDS011;37708;39.368;22.940;2022-07-05T12:09:05;10.07;;;3.20;;
51060;SDS011;37708;39.368;22.940;2022-07-05T12:11:53;6.78;;;3.40;;
51060;SDS011;37708;39.368;22.940;2022-07-05T12:14:57;7.18;;;2.97;;
51060;SDS011;37708;39.368;22.940;2022-07-05T12:17:46;18.73;;;3.00;;
51060;SDS011;37708;39.368;22.940;2022-07-05T12:20:32;8.70;;;2.78;;
51060;SDS011;37708;39.368;22.940;2022-07-05T12:23:23;7.70;;;2.70;;
51060;SDS011;37708;39.368;22.940;2022-07-05T12:26:13;8.15;;;2.40;;
51060;SDS011;37708;39.368;22.940;2022-07-05T12:28:59;9.35;;;2.50;;
51060;SDS011;37708;39.368;22.940;2022-07-05T12:35:00;9.88;;;2.60;;
51060;SDS011;37708;39.368;22.940;2022-07-05T12:37:46;7.03;;;2.63;;
51060;SDS011;37708;39.368;22.940;2022-07-05T12:40:31;5.90;;;2.72;;
51060;SDS011;37708;39.368;22.940;2022-07-05T12:43:17;10.27;;;2.90;;
51060;SDS011;37708;39.368;22.940;2022-07-05T12:48:51;7.03;;;3.45;;
51060;SDS011;37708;39.368;22.940;2022-07-05T12:51:42;11.60;;;2.40;;
51060;SDS011;37708;39.368;22.940;2022-07-05T12:54:27;11.57;;;2.80;;
51060;SDS011;37708;39.368;22.940;2022-07-05T12:57:32;11.43;;;2.60;;
51060;SDS011;37708;39.368;22.940;2022-07-05T13:00:35;19.15;;;4.50;;
51060;SDS011;37708;39.368;22.940;2022-07-05T13:03:19;12.30;;;3.75;;
51060;SDS011;37708;39.368;22.940;2022-07-05T13:06:04;11.23;;;3.90;;
51060;SDS011;37708;39.368;22.940;2022-07-05T13:08:56;6.57;;;2.83;;
51060;SDS011;37708;39.368;22.940;2022-07-05T13:11:41;9.70;;;2.65;;
51060;SDS011;37708;39.368;22.940;2022-07-05T13:14:26;8.07;;;2.60;;
51060;SDS011;37708;39.368;22.940;2022-07-05T13:17:11;21.17;;;7.13;;
51060;SDS011;37708;39.368;22.940;2022-07-05T13:19:56;15.70;;;5.40;;
51060;SDS011;37708;39.368;22.940;2022-07-05T13:22:44;17.20;;;5.32;;
51060;SDS011;37708;39.368;22.940;2022-07-05T13:25:28;15.23;;;4.10;;
51060;SDS011;37708;39.368;22.940;2022-07-05T13:28:13;11.77;;;2.58;;
51060;SDS011;37708;39.368;22.940;2022-07-05T13:30:57;7.72;;;2.50;;
51060;SDS011;37708;39.368;22.940;2022-07-05T13:33:42;7.35;;;2.30;;
51060;SDS011;37708;39.368;22.940;2022-07-05T13:36:26;7.60;;;2.53;;
51060;SDS011;37708;39.368;22.940;2022-07-05T13:39:11;5.82;;;2.22;;
51060;SDS011;37708;39.368;22.940;2022-07-05T13:41:56;8.13;;;2.13;;
51060;SDS011;37708;39.368;22.940;2022-07-05T13:44:41;10.07;;;2.53;;
51060;SDS011;37708;39.368;22.940;2022-07-05T13:47:26;6.00;;;2.33;;
51060;SDS011;37708;39.368;22.940;2022-07-05T13:50:10;6.57;;;2.40;;
51060;SDS011;37708;39.368;22.940;2022-07-05T13:53:13;5.97;;;2.45;;
51060;SDS011;37708;39.368;22.940;2022-07-05T13:55:58;9.77;;;2.90;;
51060;SDS011;37708;39.368;22.940;2022-07-05T13:58:42;7.65;;;2.42;;
51060;SDS011;37708;39.368;22.940;2022-07-05T14:01:33;9.45;;;2.42;;
51060;SDS011;37708;39.368;22.940;2022-07-05T14:04:18;14.45;;;2.50;;
51060;SDS011;37708;39.368;22.940;2022-07-05T14:07:03;8.52;;;3.00;;
51060;SDS011;37708;39.368;22.940;2022-07-05T14:09:47;8.13;;;2.45;;
51060;SDS011;37708;39.368;22.940;2022-07-05T14:12:32;7.20;;;2.70;;
51060;SDS011;37708;39.368;22.940;2022-07-05T14:15:16;6.57;;;2.72;;
51060;SDS011;37708;39.368;22.940;2022-07-05T14:18:01;13.85;;;4.55;;
51060;SDS011;37708;39.368;22.940;2022-07-05T14:20:46;10.07;;;3.03;;
51060;SDS011;37708;39.368;22.940;2022-07-05T14:23:30;3.50;;;2.22;;
51060;SDS011;37708;39.368;22.940;2022-07-05T14:26:15;7.05;;;2.30;;
51060;SDS011;37708;39.368;22.940;2022-07-05T14:29:00;7.60;;;2.58;;
51060;SDS011;37708;39.368;22.940;2022-07-05T14:31:45;9.20;;;2.60;;
51060;SDS011;37708;39.368;22.940;2022-07-05T14:34:29;11.18;;;3.70;;
51060;SDS011;37708;39.368;22.940;2022-07-05T14:37:14;8.73;;;2.22;;
51060;SDS011;37708;39.368;22.940;2022-07-05T14:39:59;10.90;;;3.08;;
51060;SDS011;37708;39.368;22.940;2022-07-05T14:42:43;7.13;;;2.53;;
51060;SDS011;37708;39.368;22.940;2022-07-05T14:45:28;4.45;;;2.40;;
51060;SDS011;37708;39.368;22.940;2022-07-05T14:48:12;8.13;;;2.40;;
51060;SDS011;37708;39.368;22.940;2022-07-05T14:50:57;13.07;;;2.72;;
51060;SDS011;37708;39.368;22.940;2022-07-05T14:53:42;5.28;;;2.15;;
51060;SDS011;37708;39.368;22.940;2022-07-05T14:56:28;6.93;;;2.35;;
51060;SDS011;37708;39.368;22.940;2022-07-05T14:59:13;4.55;;;2.30;;
51060;SDS011;37708;39.368;22.940;2022-07-05T15:01:57;9.07;;;2.35;;
51060;SDS011;37708;39.368;22.940;2022-07-05T15:04:42;8.48;;;2.42;;
51060;SDS011;37708;39.368;22.940;2022-07-05T15:07:26;6.80;;;2.30;;
51060;SDS011;37708;39.368;22.940;2022-07-05T15:10:11;8.80;;;2.10;;
51060;SDS011;37708;39.368;22.940;2022-07-05T15:12:55;6.70;;;2.00;;
51060;SDS011;37708;39.368;22.940;2022-07-05T15:15:41;4.97;;;2.45;;
51060;SDS011;37708;39.368;22.940;2022-07-05T15:18:25;7.20;;;3.00;;
51060;SDS011;37708;39.368;22.940;2022-07-05T15:21:10;10.50;;;2.78;;
51060;SDS011;37708;39.368;22.940;2022-07-05T15:23:55;15.35;;;7.25;;
51060;SDS011;37708;39.368;22.940;2022-07-05T15:26:41;4.88;;;2.58;;
51060;SDS011;37708;39.368;22.940;2022-07-05T15:29:26;13.15;;;2.58;;
51060;SDS011;37708;39.368;22.940;2022-07-05T15:32:13;5.88;;;2.83;;
51060;SDS011;37708;39.368;22.940;2022-07-05T15:34:58;11.63;;;5.68;;
51060;SDS011;37708;39.368;22.940;2022-07-05T15:37:43;6.22;;;2.58;;
51060;SDS011;37708;39.368;22.940;2022-07-05T15:40:29;6.45;;;2.53;;
51060;SDS011;37708;39.368;22.940;2022-07-05T15:43:13;8.70;;;4.07;;
51060;SDS011;37708;39.368;22.940;2022-07-05T15:45:58;8.60;;;2.63;;
51060;SDS011;37708;39.368;22.940;2022-07-05T15:48:43;9.02;;;3.08;;
51060;SDS011;37708;39.368;22.940;2022-07-05T15:51:27;24.05;;;3.38;;
51060;SDS011;37708;39.368;22.940;2022-07-05T15:54:12;10.93;;;3.05;;
51060;SDS011;37708;39.368;22.940;2022-07-05T15:56:56;5.25;;;2.10;;
51060;SDS011;37708;39.368;22.940;2022-07-05T15:59:41;9.07;;;2.83;;
51060;SDS011;37708;39.368;22.940;2022-07-05T16:02:25;3.33;;;2.42;;
51060;SDS011;37708;39.368;22.940;2022-07-05T16:05:10;6.68;;;2.42;;
51060;SDS011;37708;39.368;22.940;2022-07-05T16:07:54;8.85;;;2.70;;
51060;SDS011;37708;39.368;22.940;2022-07-05T16:10:39;9.32;;;2.28;;
51060;SDS011;37708;39.368;22.940;2022-07-05T16:13:23;10.38;;;2.88;;
51060;SDS011;37708;39.368;22.940;2022-07-05T16:16:08;17.35;;;3.20;;
51060;SDS011;37708;39.368;22.940;2022-07-05T16:18:55;8.50;;;2.80;;
51060;SDS011;37708;39.368;22.940;2022-07-05T16:21:43;3.92;;;2.42;;
51060;SDS011;37708;39.368;22.940;2022-07-05T16:24:32;12.18;;;3.03;;
51060;SDS011;37708;39.368;22.940;2022-07-05T16:27:17;7.60;;;2.20;;
51060;SDS011;37708;39.368;22.940;2022-07-05T16:30:01;6.82;;;2.40;;
51060;SDS011;37708;39.368;22.940;2022-07-05T16:32:46;7.90;;;2.10;;
51060;SDS011;37708;39.368;22.940;2022-07-05T16:35:30;15.63;;;2.67;;
51060;SDS011;37708;39.368;22.940;2022-07-05T16:38:15;6.63;;;2.63;;
51060;SDS011;37708;39.368;22.940;2022-07-05T16:41:01;6.75;;;3.00;;
51060;SDS011;37708;39.368;22.940;2022-07-05T16:43:52;6.07;;;2.00;;
51060;SDS011;37708;39.368;22.940;2022-07-05T16:46:36;8.95;;;2.58;;
51060;SDS011;37708;39.368;22.940;2022-07-05T16:49:20;8.07;;;2.72;;
51060;SDS011;37708;39.368;22.940;2022-07-05T16:52:05;14.88;;;2.95;;
51060;SDS011;37708;39.368;22.940;2022-07-05T16:54:50;4.68;;;2.30;;
51060;SDS011;37708;39.368;22.940;2022-07-05T17:01:34;6.53;;;2.13;;
51060;SDS011;37708;39.368;22.940;2022-07-05T17:04:19;6.45;;;2.33;;
51060;SDS011;37708;39.368;22.940;2022-07-05T17:07:03;6.65;;;2.40;;
51060;SDS011;37708;39.368;22.940;2022-07-05T17:09:48;11.48;;;2.70;;
51060;SDS011;37708;39.368;22.940;2022-07-05T17:12:32;17.90;;;3.13;;
51060;SDS011;37708;39.368;22.940;2022-07-05T17:15:17;4.95;;;2.70;;
51060;SDS011;37708;39.368;22.940;2022-07-05T17:18:01;12.02;;;2.80;;
51060;SDS011;37708;39.368;22.940;2022-07-05T17:20:46;11.05;;;2.60;;
51060;SDS011;37708;39.368;22.940;2022-07-05T17:23:30;8.38;;;2.65;;
51060;SDS011;37708;39.368;22.940;2022-07-05T17:26:15;8.90;;;2.45;;
51060;SDS011;37708;39.368;22.940;2022-07-05T17:29:01;3.42;;;1.85;;